createdAt,value
2017-05-25T00:01:44.880Z,68.70
2017-05-25T00:04:11.818Z,68.40
2017-05-25T00:06:40.400Z,68.30
2017-05-25T00:09:08.909Z,67.90
2017-05-25T00:11:35.870Z,67.50
2017-05-25T00:14:03.748Z,67.60
2017-05-25T00:16:31.240Z,67.90
2017-05-25T00:18:58.188Z,68.70
2017-05-25T00:21:28.205Z,68.70
2017-05-25T00:23:57.212Z,69.50
2017-05-25T00:26:25.096Z,69.40
2017-05-25T00:28:52.114Z,69.40
2017-05-25T00:31:20.944Z,69.20
2017-05-25T00:33:48.275Z,69.40
2017-05-25T00:36:16.044Z,70.30
2017-05-25T00:48:34.692Z,69.40
2017-05-25T00:51:02.477Z,69.60
2017-05-25T00:53:29.463Z,68.50
2017-05-25T00:55:56.507Z,68.30
2017-05-25T00:58:25.305Z,68.90
2017-05-25T01:00:53.203Z,69.30
2017-05-25T01:03:21.318Z,69.60
2017-05-25T01:05:48.278Z,69.70
2017-05-25T01:08:15.844Z,70.00
2017-05-25T01:10:44.238Z,69.70
2017-05-25T01:13:13.833Z,69.60
2017-05-25T01:15:42.516Z,69.70
2017-05-25T01:18:10.475Z,69.70
2017-05-25T01:20:39.164Z,70.30
2017-05-25T01:23:06.555Z,70.10
2017-05-25T01:25:34.748Z,69.50
2017-05-25T01:28:05.296Z,70.20
2017-05-25T01:30:34.501Z,69.30
2017-05-25T01:33:04.528Z,69.20
2017-05-25T01:35:33.352Z,69.20
2017-05-25T01:38:00.526Z,68.80
2017-05-25T01:40:30.827Z,69.60
2017-05-25T01:42:58.482Z,69.50
2017-05-25T01:45:27.691Z,69.70
2017-05-25T01:47:58.212Z,68.70
2017-05-25T01:50:28.957Z,69.60
2017-05-25T01:52:57.978Z,69.50
2017-05-25T01:55:25.588Z,69.30
2017-05-25T01:57:52.535Z,70.50
2017-05-25T02:00:19.881Z,69.20
2017-05-25T02:02:47.882Z,68.50
2017-05-25T02:05:16.079Z,68.30
2017-05-25T02:07:45.597Z,68.90
2017-05-25T02:10:13.818Z,68.30
2017-05-25T02:12:40.827Z,69.00
2017-05-25T02:15:08.975Z,69.40
2017-05-25T02:17:37.304Z,70.10
2017-05-25T02:20:06.487Z,70.30
2017-05-25T02:22:34.263Z,71.40
2017-05-25T02:25:01.784Z,71.60
2017-05-25T02:27:29.588Z,72.50
2017-05-25T02:29:57.472Z,73.20
2017-05-25T02:32:27.967Z,72.60
2017-05-25T02:34:57.864Z,71.80
2017-05-25T02:37:25.539Z,71.80
2017-05-25T02:39:52.540Z,72.00
2017-05-25T02:42:19.451Z,70.90
2017-05-25T02:44:48.379Z,70.60
2017-05-25T02:47:16.290Z,71.10
2017-05-25T02:49:44.228Z,70.50
2017-05-25T02:52:11.192Z,70.10
2017-05-25T02:54:39.082Z,69.80
2017-05-25T02:57:07.888Z,69.60
2017-05-25T02:59:36.523Z,70.00
2017-05-25T03:02:05.210Z,69.70
2017-05-25T03:04:34.522Z,69.50
2017-05-25T03:07:01.963Z,69.90
2017-05-25T03:09:30.240Z,70.10
2017-05-25T03:12:00.142Z,70.80
2017-05-25T03:14:27.066Z,71.60
2017-05-25T03:16:54.047Z,71.90
2017-05-25T03:19:21.495Z,71.90
2017-05-25T03:21:48.476Z,71.50
2017-05-25T03:24:15.466Z,71.60
2017-05-25T03:26:45.255Z,71.60
2017-05-25T03:29:13.871Z,71.60
2017-05-25T03:31:40.827Z,71.60
2017-05-25T03:34:10.783Z,70.50
2017-05-25T03:36:37.720Z,69.80
2017-05-25T03:39:04.674Z,69.00
2017-05-25T03:41:34.529Z,68.10
2017-05-25T03:44:02.309Z,67.80
2017-05-25T03:46:30.527Z,68.10
2017-05-25T03:48:57.767Z,67.40
2017-05-25T03:51:25.353Z,66.90
2017-05-25T03:53:53.636Z,66.60
2017-05-25T03:56:20.664Z,65.90
2017-05-25T03:58:47.995Z,66.40
2017-05-25T04:01:16.414Z,66.00
2017-05-25T04:03:45.858Z,65.80
2017-05-25T04:06:14.858Z,65.60
2017-05-25T04:08:43.561Z,65.40
2017-05-25T04:11:10.933Z,66.10
2017-05-25T04:13:38.061Z,65.20
2017-05-25T04:16:04.993Z,65.20
2017-05-25T04:18:35.980Z,65.50
2017-05-25T04:21:03.779Z,65.10
2017-05-25T04:23:31.524Z,65.00
2017-05-25T04:25:59.454Z,65.30
2017-05-25T04:28:26.361Z,65.60
2017-05-25T04:30:55.096Z,65.10
2017-05-25T04:33:23.837Z,65.00
2017-05-25T04:35:53.602Z,64.30
2017-05-25T04:38:24.055Z,63.80
2017-05-25T04:40:52.796Z,63.80
2017-05-25T04:43:20.660Z,63.20
2017-05-25T04:45:50.940Z,62.90
2017-05-25T04:48:18.288Z,63.70
2017-05-25T04:50:46.284Z,63.80
2017-05-25T04:53:14.360Z,62.50
2017-05-25T04:55:42.583Z,62.50
2017-05-25T04:58:11.369Z,61.70
2017-05-25T05:00:39.237Z,61.90
2017-05-25T05:03:06.749Z,60.40
2017-05-25T05:05:38.352Z,60.70
2017-05-25T05:08:06.116Z,59.80
2017-05-25T05:10:34.719Z,61.20
2017-05-25T05:13:02.688Z,59.50
2017-05-25T05:15:34.309Z,58.80
2017-05-25T05:18:01.356Z,58.60
2017-05-25T05:20:29.215Z,58.50
2017-05-25T05:22:56.217Z,58.50
2017-05-25T05:25:25.195Z,58.60
2017-05-25T05:27:56.031Z,58.60
2017-05-25T05:30:26.983Z,58.70
2017-05-25T05:32:54.831Z,57.90
2017-05-25T05:35:21.726Z,58.00
2017-05-25T05:37:50.355Z,57.10
2017-05-25T05:40:19.096Z,57.10
2017-05-25T05:42:46.472Z,57.00
2017-05-25T05:45:14.694Z,55.90
2017-05-25T05:47:41.712Z,56.20
2017-05-25T05:50:10.391Z,55.50
2017-05-25T05:52:38.276Z,55.70
2017-05-25T05:55:06.571Z,55.80
2017-05-25T05:57:34.183Z,54.90
2017-05-25T06:00:01.937Z,55.10
2017-05-25T06:02:29.162Z,53.90
2017-05-25T06:04:56.894Z,53.40
2017-05-25T06:07:24.873Z,53.30
2017-05-25T06:09:51.785Z,52.70
2017-05-25T06:12:20.794Z,52.50
2017-05-25T06:14:49.692Z,54.00
2017-05-25T06:17:16.688Z,53.30
2017-05-25T06:19:43.648Z,51.30
2017-05-25T06:22:12.927Z,50.40
2017-05-25T06:24:39.839Z,49.50
2017-05-25T06:27:08.229Z,49.60
2017-05-25T06:29:36.131Z,48.60
2017-05-25T06:32:06.571Z,47.70
2017-05-25T06:34:35.437Z,48.20
2017-05-25T06:37:04.599Z,49.20
2017-05-25T06:39:33.812Z,48.40
2017-05-25T06:42:02.002Z,46.10
2017-05-25T06:44:29.827Z,46.90
2017-05-25T06:46:57.931Z,44.20
2017-05-25T06:49:25.802Z,46.50
2017-05-25T06:51:53.684Z,44.40
2017-05-25T06:54:21.906Z,46.00
2017-05-25T06:56:49.475Z,45.70
2017-05-25T06:59:17.433Z,44.60
2017-05-25T07:01:47.456Z,44.70
2017-05-25T07:04:16.797Z,42.90
2017-05-25T07:06:46.033Z,42.00
2017-05-25T07:09:14.310Z,42.00
2017-05-25T07:11:44.094Z,41.20
2017-05-25T07:14:11.033Z,41.90
2017-05-25T07:16:38.341Z,41.90
2017-05-25T07:19:06.074Z,40.90
2017-05-25T07:21:33.285Z,41.40
2017-05-25T07:24:02.142Z,42.30
2017-05-25T07:26:29.250Z,40.10
2017-05-25T07:28:56.593Z,41.00
2017-05-25T07:31:23.596Z,39.00
2017-05-25T07:33:50.592Z,38.90
2017-05-25T07:36:17.544Z,38.20
2017-05-25T07:38:44.800Z,39.50
2017-05-25T07:41:11.959Z,39.20
2017-05-25T07:43:41.132Z,41.90
2017-05-25T07:46:09.696Z,41.20
2017-05-25T07:48:37.488Z,38.90
2017-05-25T07:51:05.645Z,39.40
2017-05-25T07:53:34.179Z,38.40
2017-05-25T07:56:02.377Z,37.20
2017-05-25T07:58:29.253Z,35.60
2017-05-25T08:00:56.481Z,35.80
2017-05-25T08:03:23.440Z,36.00
2017-05-25T08:05:50.422Z,36.90
2017-05-25T08:08:17.478Z,35.80
2017-05-25T08:10:45.330Z,37.10
2017-05-25T08:13:12.263Z,36.40
2017-05-25T08:15:43.645Z,36.30
2017-05-25T08:18:12.291Z,37.40
2017-05-25T08:20:40.362Z,37.90
2017-05-25T08:23:10.476Z,38.00
2017-05-25T08:25:38.673Z,38.30
2017-05-25T08:28:06.018Z,38.70
2017-05-25T08:30:33.644Z,38.70
2017-05-25T08:33:00.579Z,35.40
2017-05-25T08:35:27.985Z,38.10
2017-05-25T08:37:56.614Z,39.50
2017-05-25T08:40:23.818Z,37.10
2017-05-25T08:42:52.004Z,37.60
2017-05-25T08:45:20.743Z,38.70
2017-05-25T08:47:48.776Z,37.90
2017-05-25T08:50:16.027Z,36.90
2017-05-25T08:52:44.270Z,37.60
2017-05-25T08:55:11.207Z,39.10
2017-05-25T08:57:40.076Z,39.60
2017-05-25T09:00:08.354Z,38.60
2017-05-25T09:02:35.292Z,38.30
2017-05-25T09:05:02.264Z,38.60
2017-05-25T09:07:29.203Z,39.90
2017-05-25T09:09:57.070Z,39.80
2017-05-25T09:12:24.301Z,39.50
2017-05-25T09:14:52.443Z,38.20
2017-05-25T09:17:23.297Z,38.90
2017-05-25T09:19:50.257Z,40.20
2017-05-25T09:22:18.044Z,40.60
2017-05-25T09:24:48.117Z,39.80
2017-05-25T09:27:15.741Z,38.70
2017-05-25T09:29:43.034Z,37.00
2017-05-25T09:32:10.106Z,37.40
2017-05-25T09:34:37.017Z,38.20
2017-05-25T09:37:03.931Z,37.70
2017-05-25T09:39:32.378Z,36.10
2017-05-25T09:42:00.349Z,35.00
2017-05-25T09:44:28.842Z,34.90
2017-05-25T09:46:55.768Z,35.90
2017-05-25T09:49:23.799Z,37.80
2017-05-25T09:51:51.776Z,37.20
2017-05-25T09:54:18.708Z,37.60
2017-05-25T09:56:45.707Z,35.60
2017-05-25T09:59:13.412Z,36.60
2017-05-25T10:01:40.356Z,30.60
2017-05-25T10:04:10.298Z,29.60
2017-05-25T10:06:37.303Z,32.70
2017-05-25T10:22:11.126Z,28.30
2017-05-25T10:24:38.120Z,28.20
2017-05-25T10:27:05.067Z,27.70
2017-05-25T10:29:33.125Z,28.70
2017-05-25T10:32:00.076Z,28.90
2017-05-25T10:34:27.081Z,27.40
2017-05-25T10:36:54.090Z,28.60
2017-05-25T10:39:23.551Z,28.40
2017-05-25T10:41:50.466Z,29.30
2017-05-25T10:44:19.397Z,30.70
2017-05-25T10:46:46.396Z,33.80
2017-05-25T10:49:13.356Z,33.20
2017-05-25T10:51:41.956Z,30.30
2017-05-25T10:54:09.841Z,30.70
2017-05-25T10:56:38.761Z,33.10
2017-05-25T10:59:07.935Z,34.30
2017-05-25T11:01:35.835Z,31.60
2017-05-25T11:04:03.118Z,29.10
2017-05-25T11:06:30.115Z,28.50
2017-05-25T11:08:57.911Z,27.60
2017-05-25T11:11:24.818Z,27.90
2017-05-25T11:13:51.785Z,28.30
2017-05-25T11:16:21.897Z,27.20
2017-05-25T11:18:48.817Z,27.50
2017-05-25T11:21:19.139Z,27.10
2017-05-25T11:23:48.681Z,26.10
2017-05-25T11:26:17.918Z,27.10
2017-05-25T11:28:44.900Z,28.00
2017-05-25T11:31:13.556Z,29.20
2017-05-25T11:33:41.507Z,28.20
2017-05-25T11:36:09.727Z,28.50
2017-05-25T11:38:36.664Z,26.60
2017-05-25T11:41:03.576Z,26.30
2017-05-25T11:43:31.210Z,26.80
2017-05-25T11:45:58.371Z,27.70
2017-05-25T11:48:25.859Z,27.50
2017-05-25T11:50:54.656Z,28.20
2017-05-25T11:53:21.673Z,30.10
2017-05-25T11:55:51.464Z,31.30
2017-05-25T11:58:18.444Z,30.00
2017-05-25T12:00:47.312Z,27.70
2017-05-25T12:03:14.247Z,27.90
2017-05-25T12:05:41.207Z,28.40
2017-05-25T12:08:08.173Z,30.10
2017-05-25T12:10:39.658Z,28.80
2017-05-25T12:13:07.771Z,27.50
2017-05-25T12:15:34.725Z,27.90
2017-05-25T12:18:02.652Z,27.80
2017-05-25T12:20:31.235Z,28.30
2017-05-25T12:22:59.007Z,28.30
2017-05-25T12:25:25.961Z,26.80
2017-05-25T12:27:54.208Z,27.70
2017-05-25T12:30:21.848Z,28.50
2017-05-25T12:32:50.689Z,27.30
2017-05-25T12:35:17.597Z,27.90
2017-05-25T12:37:44.585Z,28.50
2017-05-25T12:40:12.558Z,28.60
2017-05-25T12:42:39.494Z,28.70
2017-05-25T12:45:07.072Z,29.50
2017-05-25T12:47:34.019Z,30.20
2017-05-25T12:50:00.937Z,28.50
2017-05-25T12:52:27.911Z,27.50
2017-05-25T12:54:55.639Z,27.50
2017-05-25T12:57:23.339Z,28.20
2017-05-25T12:59:51.205Z,26.20
2017-05-25T13:02:18.168Z,26.40
2017-05-25T13:04:46.938Z,26.10
2017-05-25T13:07:14.003Z,27.40
2017-05-25T13:09:42.399Z,25.40
2017-05-25T13:12:09.331Z,25.60
2017-05-25T13:14:36.369Z,25.30
2017-05-25T13:17:03.302Z,24.50
2017-05-25T13:19:30.405Z,24.70
2017-05-25T13:21:57.782Z,25.50
2017-05-25T13:24:25.169Z,26.00
2017-05-25T13:26:52.161Z,23.90
2017-05-25T13:29:20.824Z,24.40
2017-05-25T13:31:49.571Z,24.40
2017-05-25T13:34:17.345Z,25.30
2017-05-25T13:36:44.289Z,23.90
2017-05-25T13:39:11.246Z,25.20
2017-05-25T13:41:38.152Z,25.70
2017-05-25T13:44:05.158Z,25.10
2017-05-25T13:46:32.112Z,25.90
2017-05-25T13:48:59.617Z,26.30
2017-05-25T13:51:28.332Z,28.00
2017-05-25T13:53:55.603Z,28.30
2017-05-25T13:56:23.655Z,27.50
2017-05-25T13:58:51.370Z,29.00
2017-05-25T14:01:19.456Z,30.70
2017-05-25T14:03:47.541Z,31.90
2017-05-25T14:06:15.176Z,32.10
2017-05-25T14:08:43.469Z,34.40
2017-05-25T14:11:10.407Z,33.90
2017-05-25T14:13:38.515Z,33.10
2017-05-25T14:16:09.316Z,32.90
2017-05-25T14:18:36.243Z,34.00
2017-05-25T14:21:04.830Z,35.20
2017-05-25T14:23:33.171Z,35.00
2017-05-25T14:26:01.871Z,35.00
2017-05-25T14:28:31.385Z,35.20
2017-05-25T14:30:59.255Z,35.70
2017-05-25T14:33:26.210Z,35.70
2017-05-25T14:35:53.231Z,35.90
2017-05-25T14:38:22.660Z,36.10
2017-05-25T14:40:49.590Z,35.70
2017-05-25T14:43:19.148Z,36.70
2017-05-25T14:45:50.357Z,36.70
2017-05-25T14:48:18.108Z,36.70
2017-05-25T14:50:45.631Z,36.60
2017-05-25T14:53:15.489Z,36.90
2017-05-25T14:55:42.431Z,37.10
2017-05-25T14:58:10.522Z,36.90
2017-05-25T15:00:37.495Z,37.50
2017-05-25T15:03:05.335Z,37.60
2017-05-25T15:05:34.400Z,38.40
2017-05-25T15:08:02.540Z,36.90
2017-05-25T15:10:32.373Z,37.60
2017-05-25T15:12:59.290Z,38.00
2017-05-25T15:15:28.183Z,38.50
2017-05-25T15:17:57.401Z,39.00
2017-05-25T15:20:26.720Z,38.70
2017-05-25T15:22:57.035Z,38.70
2017-05-25T15:25:26.003Z,37.60
2017-05-25T15:27:53.798Z,38.10
2017-05-25T15:30:22.475Z,38.10
2017-05-25T15:32:50.585Z,38.10
2017-05-25T15:35:18.293Z,38.00
2017-05-25T15:37:47.226Z,37.90
2017-05-25T15:40:15.093Z,37.60
2017-05-25T15:42:42.006Z,36.90
2017-05-25T15:45:09.939Z,37.60
2017-05-25T15:47:37.891Z,37.60
2017-05-25T15:50:05.282Z,38.20
2017-05-25T15:52:34.584Z,37.40
2017-05-25T16:04:48.448Z,38.50
2017-05-25T16:07:15.387Z,38.90
2017-05-25T16:09:43.624Z,38.40
2017-05-25T16:12:11.590Z,39.40
2017-05-25T16:14:40.764Z,39.30
2017-05-25T16:17:10.915Z,39.20
2017-05-25T16:19:38.747Z,40.00
2017-05-25T16:22:09.248Z,39.30
2017-05-25T16:24:36.896Z,38.70
2017-05-25T16:27:03.833Z,39.60
2017-05-25T16:29:30.775Z,38.40
2017-05-25T16:31:58.189Z,39.90
2017-05-25T16:44:15.308Z,41.10
2017-05-25T16:46:43.380Z,40.60
2017-05-25T16:49:12.928Z,41.30
2017-05-25T16:51:41.683Z,41.20
2017-05-25T16:54:08.877Z,41.50
2017-05-25T16:56:36.932Z,41.80
2017-05-25T16:59:03.873Z,42.00
2017-05-25T17:01:31.132Z,42.20
2017-05-25T17:04:00.481Z,41.40
2017-05-25T17:06:29.414Z,41.60
2017-05-25T17:08:56.382Z,41.70
2017-05-25T17:11:24.689Z,40.80
2017-05-25T17:13:52.312Z,42.20
2017-05-25T17:16:19.257Z,40.80
2017-05-25T17:18:47.609Z,40.90
2017-05-25T17:31:00.189Z,39.20
2017-05-25T17:33:28.866Z,39.90
2017-05-25T17:35:57.477Z,38.50
2017-05-25T17:38:24.445Z,39.40
2017-05-25T17:40:59.334Z,38.40
2017-05-25T17:43:28.083Z,39.50
2017-05-25T17:45:58.172Z,38.10
2017-05-25T17:48:25.895Z,38.20
2017-05-25T17:50:54.348Z,39.30
2017-05-25T17:53:21.340Z,39.60
2017-05-25T17:55:49.252Z,39.40
2017-05-25T17:58:18.149Z,38.50
2017-05-25T18:00:45.139Z,39.50
2017-05-25T18:12:58.578Z,40.30
2017-05-25T18:15:26.088Z,40.70
2017-05-25T18:17:54.680Z,41.60
2017-05-25T18:20:24.703Z,41.70
2017-05-25T18:22:52.412Z,41.40
2017-05-25T18:25:20.395Z,40.60
2017-05-25T18:27:48.276Z,42.60
2017-05-25T18:30:15.976Z,43.40
2017-05-25T18:42:32.974Z,43.90
2017-05-25T18:45:01.128Z,44.30
2017-05-25T18:47:30.107Z,44.20
2017-05-25T18:49:57.259Z,44.00
2017-05-25T18:52:24.966Z,44.80
2017-05-25T18:54:55.073Z,44.90
2017-05-25T18:57:22.820Z,45.20
2017-05-25T18:59:50.423Z,45.50
2017-05-25T19:02:19.046Z,45.40
2017-05-25T19:04:47.958Z,45.90
2017-05-25T19:07:18.822Z,45.90
2017-05-25T19:09:47.121Z,46.00
2017-05-25T19:12:16.078Z,46.20
2017-05-25T19:14:43.064Z,46.40
2017-05-25T19:17:11.900Z,47.30
2017-05-25T19:19:41.753Z,47.20
2017-05-25T19:22:09.728Z,47.20
2017-05-25T19:24:37.956Z,47.20
2017-05-25T19:27:06.756Z,47.20
2017-05-25T19:29:34.040Z,47.30
2017-05-25T19:32:01.995Z,47.10
2017-05-25T19:34:30.736Z,47.50
2017-05-25T19:36:59.144Z,47.70
2017-05-25T19:39:26.959Z,48.00
2017-05-25T19:41:56.885Z,47.90
2017-05-25T19:54:14.854Z,48.60
2017-05-25T19:56:44.009Z,48.90
2017-05-25T19:59:12.447Z,49.30
2017-05-25T20:01:41.051Z,50.40
2017-05-25T20:13:58.604Z,51.60
2017-05-25T20:16:26.148Z,51.30
2017-05-25T20:18:53.135Z,52.20
2017-05-25T20:21:21.685Z,52.40
2017-05-25T20:23:50.674Z,52.80
2017-05-25T20:26:17.709Z,52.00
2017-05-25T20:28:47.089Z,51.50
2017-05-25T20:31:15.038Z,51.50
2017-05-25T20:33:45.211Z,51.50
2017-05-25T20:36:15.251Z,52.10
2017-05-25T20:38:42.294Z,52.60
2017-05-25T20:41:11.339Z,52.50
2017-05-25T20:43:41.703Z,52.30
2017-05-25T20:46:11.024Z,52.60
2017-05-25T20:48:43.023Z,52.90
2017-05-25T20:51:11.206Z,52.80
2017-05-25T20:53:39.573Z,54.00
2017-05-25T20:56:09.162Z,53.20
2017-05-25T20:58:36.535Z,53.80
2017-05-25T21:01:05.434Z,53.90
2017-05-25T21:03:33.299Z,53.70
2017-05-25T21:06:00.294Z,53.50
2017-05-25T21:08:28.373Z,53.40
2017-05-25T21:10:56.312Z,53.20
2017-05-25T21:13:25.361Z,52.80
2017-05-25T21:15:53.542Z,52.80
2017-05-25T21:18:22.149Z,53.10
2017-05-25T21:20:49.133Z,52.90
2017-05-25T21:23:16.879Z,52.90
2017-05-25T21:25:48.776Z,53.10
2017-05-25T21:28:17.059Z,53.20
2017-05-25T21:30:45.873Z,54.00
2017-05-25T21:33:15.056Z,53.10
2017-05-25T21:36:00.527Z,53.90
2017-05-25T21:38:28.503Z,53.70
2017-05-25T21:40:57.449Z,53.80
2017-05-25T21:43:26.784Z,53.90
2017-05-25T21:45:54.533Z,53.90
2017-05-25T21:48:23.192Z,53.80
2017-05-25T21:50:50.384Z,53.90
2017-05-25T21:53:19.310Z,53.90
2017-05-25T21:55:48.697Z,53.70
2017-05-25T21:58:16.428Z,53.90
2017-05-25T22:00:43.951Z,53.90
2017-05-25T22:03:13.374Z,53.90
2017-05-25T22:05:40.371Z,54.00
2017-05-25T22:08:08.663Z,54.00
2017-05-25T22:10:36.430Z,53.80
2017-05-25T22:13:05.071Z,53.80
2017-05-25T22:25:19.180Z,55.90
2017-05-25T22:27:46.161Z,55.00
2017-05-25T22:30:13.478Z,55.50
2017-05-25T22:32:40.951Z,55.90
2017-05-25T22:35:08.995Z,54.80
2017-05-25T22:37:35.933Z,55.20
2017-05-25T22:40:04.638Z,55.30
2017-05-25T22:42:32.002Z,55.40
2017-05-25T22:45:01.105Z,55.70
2017-05-25T22:47:29.489Z,55.50
2017-05-25T22:49:57.431Z,55.70
2017-05-25T22:52:26.170Z,56.70
2017-05-25T22:54:54.415Z,56.70
2017-05-25T22:57:21.761Z,56.80
2017-05-25T22:59:51.728Z,57.70
2017-05-25T23:02:19.384Z,57.60
2017-05-25T23:04:46.548Z,57.00
2017-05-25T23:07:14.300Z,57.50
2017-05-25T23:09:41.307Z,58.40
2017-05-25T23:12:09.273Z,58.20
2017-05-25T23:14:37.222Z,57.80
2017-05-25T23:17:05.460Z,58.50
2017-05-25T23:19:33.899Z,58.70
2017-05-25T23:22:01.465Z,58.80
2017-05-25T23:24:30.565Z,58.70
2017-05-25T23:26:58.293Z,59.10
2017-05-25T23:29:29.467Z,58.70
2017-05-25T23:31:58.890Z,58.40
2017-05-25T23:34:25.924Z,57.80
2017-05-25T23:36:56.406Z,58.00
2017-05-25T23:39:23.744Z,58.40
2017-05-25T23:41:51.574Z,58.80
2017-05-25T23:44:20.387Z,58.70
2017-05-25T23:46:47.387Z,58.50
2017-05-25T23:49:14.446Z,58.70
2017-05-25T23:51:41.831Z,59.00
2017-05-25T23:54:09.676Z,59.10
2017-05-25T23:56:36.689Z,59.00
2017-05-25T23:59:05.671Z,59.20
